Airfield :
LOGIN :

Register | Disclaimer

   EN    FR    IT 

 










Legend :    VFR   Marginal VFR   IFR   Intensive IFR   Very Intensive IFR
Visi :
Ceiling :
>= 8 km
>= 3000ft
5 to 8 km
1000 to 3000 ft
1500m to 5 km
500 to 1000 ft
800 to 1500m
200 to 500 ft
< 800m
< 200 ft
Symbols :   Thunderstorms  Fog  Heavy snow  Heavy precipitations  Wind > 20 kt
SIGMETs :     Misc.  Thunderstorms  Icing  Turbulence  Mountain Waves  Volcanic Ashes







- Airport Elevation : 16 ft
- IATA code : EAS


LESO - San Sebastian Fuenterrabia

CURRENT METAR :
  • 180630Z 21006KT 190V250 9999 SCT035 BKN044 BKN050 09/07 Q1033

EXPIRED METARs :
  • 180600Z 22006KT 9999 SCT034 BKN040 BKN050 09/06 Q1033
  • 180530Z 21006KT 9999 SCT040 BKN050 08/06 Q1033
  • 180500Z 21007KT 9999 BKN050 08/07 Q1033
  • 180430Z 19009KT 9999 BKN050 09/07 Q1033
  • 180400Z AUTO 19008KT 9999 OVC056 09/07 Q1033

TAF TAF LESO
Valid from the 18 at 06:00 until the 19 at 06:00 UTC


180500Z 1806/1906 22006KT 9999 FEW025 BKN040 TX12/1814Z TN03/1906Z
BECMG 1812/1814 28012KT
TEMPO 1813/1822 28015G25KT 4000 -RA BKN012
TEMPO 1816/1819 33018G34KT 2500 RA BKN008
No reported NOTAMs for that airfield.



MET'MAP, your aeronautical weather chart ! - Copyright ORBIFLY December 2007 - Disclaimer

ORBIFLY MET'MAP TEAM :

Programming & Development : Alexandra Zaïnal
Concept & Development : Baudouin d'Aumeries
Co-Development & Prog : Marc-Olivier Méhu
Technical & hardware support : Manuel Goepfert

Contact : metmap@orbifly.com




SOURCES & CREDITS :

   NOAA